avis per tempestes more information blitzortung!


avis per Pluja more information rain snow radar


Visita la nostra xarxa de llocs de meteo:

Template documentation
and downloads

And another site



Thunderstorms From: 20-07-2018 17:00 Until: 21-07-2018 01:59 warning for: Thunderstorms Level: Yellow info button
Rain From: 20-07-2018 17:00 Until: 21-07-2018 01:59 warning for: Rain Level: Yellow info button

Pagina Historial Weather Underground text

Diari Resum January 7, 2016 Unitats:  Mètric    Imperial   Tant
« Previous Dia
SegĂźent Dia »
Diari Setmana Mensual Anual Personalitzada
  Maxima: Minima: Media:
Temperatura: -17.8 °C -10.3 °C -8.7 °C
Punt de rosada: -17.8 °C -14.4 °C -13.5 °C
Humitat: Humidity % 49 % 57 %
Wind Speed: 0 km/h 2.6 km/h 11.4 km/h
RĂ fegues de vent: 0 km/h - -
Vent:- - WNW
Pression baro: 0 hPa 34130.9 hPa -
Precipitacions: 0 mm    
Historical Graphs
 
 
Dades de taula per January 7, 2016
Temps Temperatura Punt de rosada Pression baro Vent Wind Speed RĂ fegues de vent Humitat Rainfall Rate (Hourly)
-17.8 °C -17.8 °C 0 hPa Calm     Humidity % 0 mm
10:59 -10.3 °C -14.4 °C 34198.6 hPa WNW 16.1 km/h 16.1 km/h 61 % 0 mm
11:04 -10.2 °C -14.3 °C 34198.6 hPa WSW 11.9 km/h 12.2 km/h 61 % 0 mm
11:09 -10 °C -14.1 °C 34198.6 hPa WSW 15 km/h 15 km/h 61 % 0 mm
11:14 -9.8 °C -14.1 °C 34198.6 hPa WSW 17.9 km/h 17.9 km/h 60 % 0 mm
11:19 -9.7 °C -13.9 °C 34198.6 hPa SW 15 km/h 15 km/h 60 % 0 mm
11:24 -9.6 °C -13.8 °C 34198.6 hPa WSW 11.9 km/h 11.9 km/h 60 % 0 mm
11:29 -9.4 °C -13.8 °C 34198.6 hPa SW 15 km/h 15 km/h 59 % 0 mm
11:34 -9.3 °C -13.8 °C 34198.6 hPa WSW 12.2 km/h 16.1 km/h 58 % 0 mm
11:39 -9.2 °C -13.9 °C 34198.6 hPa SW 20.9 km/h 20.9 km/h 57 % 0 mm
11:44 -9.2 °C -13.9 °C 34198.6 hPa South 9.8 km/h 14 km/h 57 % 0 mm
11:49 -9.2 °C -14 °C 34198.6 hPa West 16.1 km/h 16.1 km/h 56 % 0 mm
11:54 -9.1 °C -14 °C 34198.6 hPa WNW 17.9 km/h 17.9 km/h 56 % 0 mm
11:59 -9.1 °C -13.9 °C 34198.6 hPa SW 20.3 km/h 20.3 km/h 56 % 0 mm
12:04 -9 °C -13.8 °C 34198.6 hPa WSW 11.9 km/h 11.9 km/h 56 % 0 mm
12:09 -8.9 °C -13.8 °C 34164.7 hPa West 15 km/h 15 km/h 56 % 0 mm
12:14 -8.8 °C -13.7 °C 34164.7 hPa WSW 9.8 km/h 9.8 km/h 56 % 0 mm
12:19 -8.7 °C -13.6 °C 34164.7 hPa WSW 15 km/h 15 km/h 56 % 0 mm
12:24 -8.6 °C -13.7 °C 34198.6 hPa SSE 15 km/h 15 km/h 55 % 0 mm
12:29 -8.4 °C -13.5 °C 34198.6 hPa SW 11.9 km/h 11.9 km/h 55 % 0 mm
12:34 -8.3 °C -13.5 °C 34198.6 hPa West 17.9 km/h 17.9 km/h 54 % 0 mm
12:39 -8.3 °C -13.7 °C 34198.6 hPa SSW 15 km/h 17.9 km/h 53 % 0 mm
12:44 -8.2 °C -13.6 °C 34198.6 hPa WSW 15 km/h 15 km/h 53 % 0 mm
12:49 -8.2 °C -13.7 °C 34198.6 hPa West 20.9 km/h 20.9 km/h 52 % 0 mm
12:54 -8.2 °C -13.6 °C 34164.7 hPa West 15 km/h 15 km/h 53 % 0 mm
12:59 -8.3 °C -13.8 °C 34164.7 hPa SW 23.8 km/h 23.8 km/h 52 % 0 mm
13:04 -8.2 °C -13.7 °C 34164.7 hPa SW 17.9 km/h 17.9 km/h 52 % 0 mm
13:09 -8.2 °C -13.7 °C 34164.7 hPa SW 20.9 km/h 20.9 km/h 52 % 0 mm
13:14 -8.1 °C -13.6 °C 34164.7 hPa WSW 15 km/h 15 km/h 52 % 0 mm
13:19 -8.1 °C -13.6 °C 34164.7 hPa WNW 20.9 km/h 20.9 km/h 52 % 0 mm
13:24 -8 °C -13.6 °C 34164.7 hPa West 9.3 km/h 9.3 km/h 52 % 0 mm
13:29 -7.9 °C -13.5 °C 34164.7 hPa South 12.7 km/h 12.7 km/h 52 % 0 mm
13:34 -7.9 °C -13.7 °C 34164.7 hPa WSW 15 km/h 15.6 km/h 51 % 0 mm
13:39 -7.9 °C -13.6 °C 34164.7 hPa SSW 12.7 km/h 12.7 km/h 51 % 0 mm
13:44 -7.8 °C -13.5 °C 34164.7 hPa SW 20.9 km/h 20.9 km/h 51 % 0 mm
13:49 -7.6 °C -13.3 °C 34164.7 hPa SW 6.8 km/h 16.6 km/h 51 % 0 mm
13:54 -7.6 °C -13.3 °C 34164.7 hPa SSW 15 km/h 16.1 km/h 51 % 0 mm
13:59 -7.6 °C -13.3 °C 34164.7 hPa West 15 km/h 15 km/h 51 % 0 mm
14:04 -7.5 °C -13.2 °C 34164.7 hPa West 11.9 km/h 14 km/h 51 % 0 mm
14:09 -7.4 °C -13.4 °C 34130.9 hPa West 11.9 km/h 14 km/h 50 % 0 mm
14:14 -7.4 °C -13.4 °C 34130.9 hPa West 11.9 km/h 14 km/h 50 % 0 mm
14:19 -7.4 °C -13.3 °C 34130.9 hPa West 11.9 km/h 14 km/h 50 % 0 mm
14:24 -7.3 °C -13.2 °C 34130.9 hPa West 11.9 km/h 14 km/h 50 % 0 mm
14:29 -7.3 °C -13.2 °C 34130.9 hPa West 11.9 km/h 14 km/h 50 % 0 mm
14:34 -7.3 °C -13.2 °C 34130.9 hPa West 11.9 km/h 14 km/h 50 % 0 mm
14:39 -7.3 °C -13.2 °C 34130.9 hPa West 11.9 km/h 14 km/h 50 % 0 mm
14:44 -7.3 °C -13.2 °C 34130.9 hPa West 11.9 km/h 14 km/h 50 % 0 mm
14:49 -7.3 °C -13.2 °C 34130.9 hPa West 11.9 km/h 14 km/h 50 % 0 mm
14:54 -7.3 °C -13.2 °C 34130.9 hPa West 11.9 km/h 14 km/h 50 % 0 mm
14:59 -7.2 °C -13.3 °C 34130.9 hPa West 11.9 km/h 14 km/h 49 % 0 mm
15:04 -7.3 °C -13.2 °C 34130.9 hPa West 11.9 km/h 14 km/h 50 % 0 mm
15:09 -7.3 °C -13.2 °C 34164.7 hPa West 11.9 km/h 14 km/h 50 % 0 mm
15:14 -7.3 °C -13.2 °C 34164.7 hPa NNW 15.3 km/h 15.3 km/h 50 % 0 mm
15:19 -7.3 °C -13.2 °C 34164.7 hPa NNW 15.3 km/h 15.3 km/h 50 % 0 mm
15:24 -7.3 °C -13.2 °C 34198.6 hPa NNW 15.3 km/h 15.3 km/h 50 % 0 mm
15:29 -7.3 °C -13.1 °C 34198.6 hPa NNW 15.3 km/h 15.3 km/h 51 % 0 mm
15:34 -7.4 °C -13.2 °C 34198.6 hPa NNW 15.3 km/h 15.3 km/h 51 % 0 mm
15:39 -7.5 °C -13.2 °C 34198.6 hPa NNW 15.3 km/h 15.3 km/h 51 % 0 mm
15:44 -7.5 °C -13.2 °C 34198.6 hPa NNW 15.3 km/h 15.3 km/h 51 % 0 mm
15:49 -7.5 °C -13.2 °C 34198.6 hPa NNW 15.3 km/h 15.3 km/h 51 % 0 mm
15:54 -7.5 °C -13.2 °C 34198.6 hPa NNW 15.3 km/h 15.3 km/h 51 % 0 mm
15:59 -7.6 °C -13.3 °C 34198.6 hPa NNW 15.3 km/h 15.3 km/h 51 % 0 mm
16:04 -7.5 °C -13.2 °C 34198.6 hPa NNW 15.3 km/h 15.3 km/h 51 % 0 mm
16:09 -7.4 °C -13.2 °C 34198.6 hPa NNW 15.3 km/h 15.3 km/h 51 % 0 mm
16:14 -7.4 °C -13.2 °C 34198.6 hPa NNW 15.3 km/h 15.3 km/h 51 % 0 mm
16:19 -7.5 °C -13.2 °C 34198.6 hPa NNW 15.3 km/h 15.3 km/h 51 % 0 mm
16:24 -7.6 °C -13.3 °C 34198.6 hPa NNW 15.3 km/h 15.3 km/h 51 % 0 mm
16:29 -7.7 °C -13.4 °C 34198.6 hPa NNW 15.3 km/h 15.3 km/h 51 % 0 mm
16:34 -7.7 °C -13.3 °C 34198.6 hPa NNW 15.3 km/h 15.3 km/h 52 % 0 mm
16:39 -7.7 °C -13.3 °C 34198.6 hPa NNW 15.3 km/h 15.3 km/h 52 % 0 mm
16:44 -7.8 °C -13.3 °C 34198.6 hPa NNW 15.3 km/h 15.3 km/h 52 % 0 mm
16:49 -7.8 °C -13.4 °C 34198.6 hPa NNW 15.3 km/h 15.3 km/h 52 % 0 mm
16:54 -7.8 °C -13.4 °C 34198.6 hPa NNW 15.3 km/h 15.3 km/h 52 % 0 mm
16:59 -7.9 °C -13.4 °C 34198.6 hPa NNW 15.3 km/h 15.3 km/h 52 % 0 mm
17:04 -7.9 °C -13.3 °C 34198.6 hPa NNW 15.3 km/h 15.3 km/h 53 % 0 mm
17:09 -8 °C -13.4 °C 34198.6 hPa NNW 15.3 km/h 15.3 km/h 53 % 0 mm
17:14 -8.1 °C -13.5 °C 34198.6 hPa NNW 15.3 km/h 15.3 km/h 53 % 0 mm
17:19 -8.2 °C -13.6 °C 34198.6 hPa NNW 15.3 km/h 15.3 km/h 53 % 0 mm
17:24 -8.3 °C -13.5 °C 34164.7 hPa NNW 15.3 km/h 15.3 km/h 54 % 0 mm
17:29 -8.3 °C -13.6 °C 34164.7 hPa NNW 15.3 km/h 15.3 km/h 54 % 0 mm
17:34 -8.4 °C -13.5 °C 34164.7 hPa NNW 15.3 km/h 15.3 km/h 55 % 0 mm
17:39 -8.6 °C -13.6 °C 34198.6 hPa NNW 15.3 km/h 15.3 km/h 55 % 0 mm
17:44 -8.6 °C -13.5 °C 34198.6 hPa NNW 15.3 km/h 15.3 km/h 56 % 0 mm
17:50 -8.7 °C -13.6 °C 34198.6 hPa NNW 15.3 km/h 15.3 km/h 56 % 0 mm
17:55 -8.7 °C -13.6 °C 34198.6 hPa NNW 15.3 km/h 15.3 km/h 56 % 0 mm
18:00 -8.8 °C -13.5 °C 34198.6 hPa NNW 15.3 km/h 15.3 km/h 57 % 0 mm
18:05 -8.8 °C -13.6 °C 34198.6 hPa NNW 15.3 km/h 15.3 km/h 57 % 0 mm
18:10 -8.8 °C -13.4 °C 34198.6 hPa NNW 15.3 km/h 15.3 km/h 58 % 0 mm
18:15 -8.8 °C -13.4 °C 34198.6 hPa NNW 12.9 km/h 15.6 km/h 58 % 0 mm
18:20 -8.8 °C -13.4 °C 34198.6 hPa NNW 12.9 km/h 15.6 km/h 58 % 0 mm
18:25 -8.9 °C -13.3 °C 34198.6 hPa NNW 12.9 km/h 15.6 km/h 59 % 0 mm
18:30 -8.9 °C -13.4 °C 34198.6 hPa NNW 12.9 km/h 15.6 km/h 59 % 0 mm
18:35 -9 °C -13.4 °C 34198.6 hPa NNW 12.9 km/h 15.6 km/h 59 % 0 mm
18:40 -9 °C -13.3 °C 34198.6 hPa NNW 12.9 km/h 15.6 km/h 60 % 0 mm
18:45 -9.1 °C -13.4 °C 34198.6 hPa NNW 12.9 km/h 15.6 km/h 60 % 0 mm
18:50 -9 °C -13.3 °C 34198.6 hPa NNW 12.9 km/h 15.6 km/h 60 % 0 mm
19:00 -9.1 °C -13.4 °C 34198.6 hPa NNW 12.9 km/h 15.6 km/h 60 % 0 mm
19:05 -9.1 °C -13.4 °C 34198.6 hPa NNW 12.9 km/h 15.6 km/h 60 % 0 mm
19:10 -9 °C -13.3 °C 34198.6 hPa NNW 12.9 km/h 15.6 km/h 60 % 0 mm
19:15 -9 °C -13.3 °C 34198.6 hPa NNW 12.9 km/h 15.6 km/h 60 % 0 mm
19:20 -9 °C -13.3 °C 34198.6 hPa WSW 15 km/h 15 km/h 60 % 0 mm
19:25 -9 °C -13.3 °C 34198.6 hPa West 5.1 km/h 5.1 km/h 60 % 0 mm
19:30 -9.1 °C -13.4 °C 34198.6 hPa WSW 5.1 km/h 5.1 km/h 60 % 0 mm
19:35 -9.1 °C -13.2 °C 34198.6 hPa WSW 5.1 km/h 5.1 km/h 61 % 0 mm
19:40 -9.1 °C -13.3 °C 34198.6 hPa WSW 7.7 km/h 12.9 km/h 61 % 0 mm
19:45 -9.1 °C -13.3 °C 34198.6 hPa West 5.1 km/h 10.3 km/h 61 % 0 mm
19:50 -9.2 °C -13.4 °C 34198.6 hPa WSW 5.1 km/h 7.7 km/h 61 % 0 mm
19:55 -9.3 °C -13.4 °C 34198.6 hPa WSW 7.7 km/h 7.7 km/h 61 % 0 mm
20:00 -9.3 °C -13.4 °C 34198.6 hPa WSW 5.1 km/h 7.7 km/h 61 % 0 mm
20:05 -9.3 °C -13.4 °C 34198.6 hPa WSW 5.1 km/h 7.7 km/h 62 % 0 mm
20:10 -9.4 °C -13.6 °C 34198.6 hPa WNW 2.6 km/h 7.7 km/h 61 % 0 mm
20:15 -9.4 °C -13.4 °C 34198.6 hPa WNW 5.1 km/h 7.7 km/h 62 % 0 mm
20:20 -9.5 °C -13.5 °C 34198.6 hPa WNW 5.1 km/h 5.1 km/h 62 % 0 mm
20:25 -9.6 °C -13.6 °C 34212.1 hPa WNW 5.1 km/h 5.1 km/h 62 % 0 mm
20:30 -9.6 °C -13.6 °C 34222.3 hPa WNW 5.1 km/h 5.1 km/h 62 % 0 mm
20:35 -9.7 °C -13.7 °C 34222.3 hPa WNW 2.6 km/h 5.1 km/h 62 % 0 mm
20:40 -9.7 °C -13.7 °C 34222.3 hPa WNW 2.6 km/h 5.1 km/h 62 % 0 mm
20:45 -9.7 °C -13.6 °C 34222.3 hPa West 2.6 km/h 5.1 km/h 63 % 0 mm
20:50 -9.8 °C -13.6 °C 34222.3 hPa West 2.6 km/h 5.1 km/h 63 % 0 mm
20:55 -9.8 °C -13.7 °C 34222.3 hPa WNW 2.6 km/h 2.6 km/h 63 % 0 mm
21:00 -9.8 °C -13.7 °C 34222.3 hPa West 5.1 km/h 5.1 km/h 63 % 0 mm
21:05 -9.8 °C -13.7 °C 34222.3 hPa West 5.1 km/h 7.7 km/h 63 % 0 mm
21:10 -9.7 °C -13.4 °C 34212.1 hPa West 5.1 km/h 5.1 km/h 64 % 0 mm
21:15 -9.6 °C -13.4 °C 34198.6 hPa West 5.1 km/h 5.1 km/h 64 % 0 mm
21:20 -9.5 °C -13.2 °C 34198.6 hPa West 5.1 km/h 5.1 km/h 64 % 0 mm
21:25 -9.4 °C -13.2 °C 34178.3 hPa West 5.1 km/h 5.1 km/h 64 % 0 mm
21:30 -9.4 °C -13.2 °C 34164.7 hPa West 5.1 km/h 5.1 km/h 64 % 0 mm
21:35 -9.4 °C -13.2 °C 34164.7 hPa West 5.1 km/h 5.1 km/h 64 % 0 mm
21:40 -9.3 °C -13.1 °C 34188.4 hPa West 5.1 km/h 5.1 km/h 64 % 0 mm
21:45 -9.4 °C -13.2 °C 34222.3 hPa West 5.1 km/h 5.1 km/h 64 % 0 mm
21:50 -9.4 °C -13.2 °C 34222.3 hPa West 5.1 km/h 5.1 km/h 64 % 0 mm
21:55 -9.4 °C -13.2 °C 34222.3 hPa West 4.2 km/h 5.6 km/h 64 % 0 mm
22:00 -9.3 °C -13.1 °C 34222.3 hPa West 4.2 km/h 5.6 km/h 64 % 0 mm
22:05 -9.4 °C -13.2 °C 34222.3 hPa West 4.2 km/h 5.6 km/h 64 % 0 mm
22:10 -9.4 °C -13.2 °C 34222.3 hPa West 4.2 km/h 5.6 km/h 64 % 0 mm
22:15 -9.4 °C -13.2 °C 34222.3 hPa West 4.2 km/h 5.6 km/h 64 % 0 mm
22:20 -9.6 °C -13.4 °C 34222.3 hPa West 4.2 km/h 5.6 km/h 64 % 0 mm
22:25 -9.7 °C -13.4 °C 34222.3 hPa WSW 5.1 km/h 10.3 km/h 64 % 0 mm
22:30 -9.8 °C -13.5 °C 34222.3 hPa SW 5.1 km/h 10.3 km/h 64 % 0 mm
22:35 -9.8 °C -13.5 °C 34222.3 hPa SW 9.3 km/h 9.3 km/h 64 % 0 mm
22:40 -9.8 °C -13.6 °C 34212.1 hPa SW 5.1 km/h 10.3 km/h 64 % 0 mm
22:45 -9.9 °C -13.6 °C 34198.6 hPa SW 9.3 km/h 9.3 km/h 64 % 0 mm
22:50 -9.9 °C -13.6 °C 34198.6 hPa SW 5.1 km/h 10.3 km/h 64 % 0 mm
22:55 -9.8 °C -13.4 °C 34198.6 hPa SW 5.1 km/h 10.3 km/h 65 % 0 mm
23:00 -9.9 °C -13.5 °C 34198.6 hPa SW 5.1 km/h 10.3 km/h 65 % 0 mm
23:05 -9.8 °C -13.5 °C 34198.6 hPa SW 5.1 km/h 10.3 km/h 64 % 0 mm
23:10 -9.7 °C -13.4 °C 34198.6 hPa SW 5.1 km/h 10.3 km/h 64 % 0 mm
23:15 -9.7 °C -13.4 °C 34198.6 hPa SW 9.3 km/h 9.3 km/h 64 % 0 mm
Meteo Sesrovires
Elogis d' Weather Underground - 2 mb

Guio original per  Jim McMurry - jmcmurry@mwt.net Adaptat per a la plantilla per  Wim van der Kuil - Leuven-Template.eu

Trobareu la nostra informacio del temps tambe a:

Weather Underground

AWEKAS